Time;durP1;ratioP1;P1;durP2;ratioP2;P2;SDS_P1;SDS_P2;PMS_P1;PMS_P2;Temp;Humidity;BMP_temperature;BMP_pressure;BME280_temperature;BME280_humidity;BME280_pressure;Samples;Min_cycle;Max_cycle;Signal;HPM_P1;HPM_P2
2021/05/23 00:02:42;;;;;;;;;;;;;;;18.02;59.92;100409.09;5050786;28;19913;-80
2021/05/23 00:05:46;;;;;;;;;;;;;;;18.13;59.58;100410.81;5051071;28;19924;-79
2021/05/23 00:08:31;;;;;;;;;;;;;;;18.07;59.69;100412.31;5057461;28;19913;-82
2021/05/23 00:11:15;;;;;;;;;;;;;;;17.96;59.68;100419.63;5054889;28;20300;-82
2021/05/23 00:14:00;;;;;;;;;;;;;;;17.69;61.03;100420.78;5059569;28;19920;-83
2021/05/23 00:16:44;;;;;;;;;;;;;;;17.61;61.25;100419.91;5056631;28;20331;-83
2021/05/23 00:19:29;;;;;;;;;;;;;;;17.63;61.39;100416.75;5054902;28;19912;-82
2021/05/23 00:22:14;;;;;;;;;;;;;;;17.50;61.98;100411.44;5058554;28;20292;-83
2021/05/23 00:24:59;;;;;;;;;;;;;;;17.44;61.98;100412.91;5057525;28;20372;-82
2021/05/23 00:27:43;;;;;;;;;;;;;;;17.37;61.97;100418.28;5055231;28;20339;-81
2021/05/23 00:30:46;;;;;;;;;;;;;;;17.33;62.40;100411.94;5054945;28;19913;-82
2021/05/23 00:33:32;;;;;;;;;;;;;;;17.42;61.98;100404.22;5059453;28;19913;-82
2021/05/23 00:39:20;;;;;;;;;;;;;;;17.57;61.23;100405.28;5050155;28;20364;-82
2021/05/23 00:42:05;;;;;;;;;;;;;;;17.54;61.09;100397.75;5056078;28;19913;-82
2021/05/23 00:44:50;;;;;;;;;;;;;;;17.43;61.43;100400.31;5053457;28;19916;-80
2021/05/23 00:47:53;;;;;;;;;;;;;;;17.39;61.75;100396.72;5057362;28;19912;-80
2021/05/23 00:50:38;;;;;;;;;;;;;;;17.35;62.07;100401.38;5043447;28;19913;-83
2021/05/23 00:53:23;;;;;;;;;;;;;;;17.33;62.34;100402.91;5052390;28;20288;-81
2021/05/23 00:56:09;;;;;;;;;;;;;;;17.30;62.57;100403.66;5054616;28;19917;-81
2021/05/23 00:58:54;;;;;;;;;;;;;;;17.33;62.32;100402.91;5055808;28;19916;-80
2021/05/23 01:01:45;;;;;;;;;;;;;;;17.40;62.04;100401.06;5054076;28;19912;-80
2021/05/23 01:04:48;;;;;;;;;;;;;;;17.33;62.35;100398.19;5058161;28;19912;-82
2021/05/23 01:07:33;;;;;;;;;;;;;;;17.27;62.06;100391.44;5053735;28;19912;-80
2021/05/23 01:13:59;;;;;;;;;;;;;;;17.09;63.25;100396.63;5034884;28;19913;-82
2021/05/23 01:16:47;;;;;;;;;;;;;;;17.03;63.29;100403.59;5053350;28;19912;-80
2021/05/23 01:22:40;;;;;;;;;;;;;;;16.86;63.49;100387.63;5056315;28;19916;-82
2021/05/23 01:25:44;;;;;;;;;;;;;;;16.77;63.73;100376.03;5095762;22;19920;-83
2021/05/23 01:28:31;;;;;;;;;;;;;;;16.73;63.83;100369.69;5038108;28;19917;-84
2021/05/23 01:31:18;;;;;;;;;;;;;;;16.77;63.69;100370.56;5048158;28;19913;-85
2021/05/23 01:34:03;;;;;;;;;;;;;;;16.80;63.65;100378.09;5059377;28;19913;-84
2021/05/23 01:36:50;;;;;;;;;;;;;;;16.79;63.76;100379.22;5069996;28;19912;-84
2021/05/23 01:39:36;;;;;;;;;;;;;;;16.82;63.69;100380.44;5055733;28;20355;-83
2021/05/23 01:42:21;;;;;;;;;;;;;;;16.84;63.19;100386.38;5051878;28;19917;-84
2021/05/23 01:45:06;;;;;;;;;;;;;;;16.88;63.09;100385.28;5054067;28;19917;-83
2021/05/23 01:47:51;;;;;;;;;;;;;;;16.85;63.22;100385.22;5061378;28;19908;-84
2021/05/23 01:50:37;;;;;;;;;;;;;;;16.78;63.29;100390.56;5053184;28;19913;-83
2021/05/23 01:53:22;;;;;;;;;;;;;;;16.58;63.50;100387.88;5052533;28;20383;-84
2021/05/23 01:56:09;;;;;;;;;;;;;;;16.57;63.81;100391.72;5067317;28;19912;-83
2021/05/23 01:59:12;;;;;;;;;;;;;;;16.56;63.72;100397.56;5066678;28;19912;-83
2021/05/23 02:02:16;;;;;;;;;;;;;;;16.56;63.89;100389.34;5059642;28;20369;-84
2021/05/23 02:05:00;;;;;;;;;;;;;;;16.47;63.98;100391.53;5053077;28;19925;-84
2021/05/23 02:07:46;;;;;;;;;;;;;;;16.56;63.80;100394.84;5072169;28;19912;-83
2021/05/23 02:10:31;;;;;;;;;;;;;;;16.55;64.21;100393.28;5037321;28;19916;-83
2021/05/23 02:13:36;;;;;;;;;;;;;;;16.58;64.31;100398.03;5047437;28;20300;-83
2021/05/23 02:16:39;;;;;;;;;;;;;;;16.55;64.74;100409.75;5066329;28;19912;-83
2021/05/23 02:19:43;;;;;;;;;;;;;;;16.61;64.65;100403.59;5068500;28;20112;-82
2021/05/23 02:22:27;;;;;;;;;;;;;;;16.52;64.22;100388.50;5054908;28;19912;-83
2021/05/23 02:25:13;;;;;;;;;;;;;;;16.36;64.58;100390.50;5053876;28;19916;-83
2021/05/23 02:28:00;;;;;;;;;;;;;;;16.26;64.97;100392.69;5069028;28;19912;-83
2021/05/23 02:30:50;;;;;;;;;;;;;;;16.33;64.81;100396.75;5033788;28;19913;-84
2021/05/23 02:33:36;;;;;;;;;;;;;;;16.43;64.91;100387.91;5046996;28;19921;-83
2021/05/23 02:36:20;;;;;;;;;;;;;;;16.42;64.92;100376.16;5050010;28;19917;-81
2021/05/23 02:39:06;;;;;;;;;;;;;;;16.38;65.46;100389.00;5047983;28;19921;-83
2021/05/23 02:41:51;;;;;;;;;;;;;;;16.39;65.39;100387.06;5045591;28;19917;-85
2021/05/23 02:44:36;;;;;;;;;;;;;;;16.39;65.38;100387.88;5072178;28;19914;-85
2021/05/23 02:47:20;;;;;;;;;;;;;;;16.46;65.01;100385.25;5070338;28;19921;-84
2021/05/23 02:50:07;;;;;;;;;;;;;;;16.84;63.68;100381.69;5069206;28;19912;-86
2021/05/23 02:52:54;;;;;;;;;;;;;;;16.77;63.67;100384.28;5052191;28;19913;-84
2021/05/23 02:55:40;;;;;;;;;;;;;;;16.55;64.50;100382.28;5034462;28;19921;-84
2021/05/23 02:58:26;;;;;;;;;;;;;;;16.50;64.63;100379.84;5029950;28;19917;-85
2021/05/23 03:04:33;;;;;;;;;;;;;;;16.45;64.85;100385.63;5053865;28;19913;-85
2021/05/23 03:07:18;;;;;;;;;;;;;;;16.49;64.51;100390.03;5051874;28;19917;-85
2021/05/23 03:10:07;;;;;;;;;;;;;;;16.40;65.09;100383.97;5055912;28;19932;-84
2021/05/23 03:12:53;;;;;;;;;;;;;;;16.39;64.99;100378.84;5055572;28;19913;-85
2021/05/23 03:15:38;;;;;;;;;;;;;;;16.27;65.13;100388.00;5055545;28;19916;-84
2021/05/23 03:18:22;;;;;;;;;;;;;;;16.19;64.81;100380.78;5065619;28;19917;-84
2021/05/23 03:21:07;;;;;;;;;;;;;;;16.07;65.18;100381.72;5048537;28;19913;-84
2021/05/23 03:23:51;;;;;;;;;;;;;;;16.00;65.71;100384.28;5057550;28;19920;-84
2021/05/23 03:26:35;;;;;;;;;;;;;;;16.15;65.53;100391.66;5047227;28;19917;-84
2021/05/23 03:29:39;;;;;;;;;;;;;;;16.49;65.04;100386.47;5051378;28;19912;-83
2021/05/23 03:32:24;;;;;;;;;;;;;;;16.51;64.54;100393.19;5035042;28;19921;-85
2021/05/23 03:35:27;;;;;;;;;;;;;;;16.39;65.29;100387.06;5029684;28;20297;-84
2021/05/23 03:38:12;;;;;;;;;;;;;;;16.44;64.86;100393.06;5069766;28;20284;-84
2021/05/23 03:41:15;;;;;;;;;;;;;;;16.37;64.88;100392.91;5050324;28;19913;-84
2021/05/23 03:44:00;;;;;;;;;;;;;;;16.25;64.67;100391.09;5050202;28;19913;-85
2021/05/23 03:46:44;;;;;;;;;;;;;;;15.99;64.85;100393.69;5067291;28;19917;-84
2021/05/23 03:49:29;;;;;;;;;;;;;;;15.93;65.31;100403.34;5069247;28;19913;-84
2021/05/23 03:52:14;;;;;;;;;;;;;;;15.61;66.31;100404.56;5049205;28;19913;-85
2021/05/23 03:54:58;;;;;;;;;;;;;;;15.62;66.42;100409.72;5051060;28;19913;-86
2021/05/23 03:57:43;;;;;;;;;;;;;;;15.73;65.88;100412.69;5055448;28;19913;-84
2021/05/23 04:00:28;;;;;;;;;;;;;;;15.78;65.67;100398.72;5054519;28;19913;-85
2021/05/23 04:03:13;;;;;;;;;;;;;;;15.80;65.68;100397.19;5055022;28;19913;-83
2021/05/23 04:05:58;;;;;;;;;;;;;;;15.81;65.88;100406.22;5024541;28;19917;-83
2021/05/23 04:08:42;;;;;;;;;;;;;;;15.80;66.03;100410.09;5049573;28;19913;-83
2021/05/23 04:11:33;;;;;;;;;;;;;;;15.77;66.25;100408.09;5042707;28;20301;-84
2021/05/23 04:14:18;;;;;;;;;;;;;;;15.73;66.69;100402.53;5048960;28;19968;-84
2021/05/23 04:17:03;;;;;;;;;;;;;;;15.71;66.91;100395.81;5043459;28;19913;-83
2021/05/23 04:19:48;;;;;;;;;;;;;;;15.69;67.16;100406.34;5061684;28;19916;-84
2021/05/23 04:22:32;;;;;;;;;;;;;;;15.74;67.08;100414.28;5062400;28;19912;-84
2021/05/23 04:25:36;;;;;;;;;;;;;;;15.80;66.95;100421.88;5053141;28;19913;-83
2021/05/23 04:28:21;;;;;;;;;;;;;;;15.88;66.90;100417.34;5030504;28;19913;-84
2021/05/23 04:31:06;;;;;;;;;;;;;;;15.87;66.82;100418.50;5066170;28;19912;-84
2021/05/23 04:33:50;;;;;;;;;;;;;;;15.80;67.44;100410.91;5052682;28;19913;-83
2021/05/23 04:36:35;;;;;;;;;;;;;;;15.74;67.49;100412.34;5067461;28;19913;-85
2021/05/23 04:39:20;;;;;;;;;;;;;;;15.74;67.40;100414.28;5041739;28;19913;-85
2021/05/23 04:42:05;;;;;;;;;;;;;;;15.80;67.33;100429.28;5031786;28;19913;-86
2021/05/23 04:44:50;;;;;;;;;;;;;;;15.88;67.18;100431.06;5052033;28;19913;-84
2021/05/23 04:47:35;;;;;;;;;;;;;;;15.98;66.85;100437.94;5048637;28;19901;-85
2021/05/23 04:50:20;;;;;;;;;;;;;;;16.01;66.98;100439.94;5049455;28;19913;-85
2021/05/23 04:53:05;;;;;;;;;;;;;;;16.22;66.42;100445.91;5057737;28;19913;-85
2021/05/23 04:55:50;;;;;;;;;;;;;;;16.62;64.68;100438.16;5050532;28;20392;-83
2021/05/23 05:01:58;;;;;;;;;;;;;;;17.25;62.45;100432.25;5028638;28;20301;-81
2021/05/23 05:04:43;;;;;;;;;;;;;;;17.29;62.32;100433.09;5046515;28;19917;-83
2021/05/23 05:07:28;;;;;;;;;;;;;;;17.43;61.72;100449.81;5037986;28;19917;-84
2021/05/23 05:10:12;;;;;;;;;;;;;;;17.35;62.12;100445.38;5039155;28;19932;-83
2021/05/23 05:16:00;;;;;;;;;;;;;;;17.29;62.46;100438.59;5045653;28;19920;-82
2021/05/23 05:19:04;;;;;;;;;;;;;;;17.21;63.14;100439.63;5055299;28;19913;-82
2021/05/23 05:21:49;;;;;;;;;;;;;;;17.16;63.36;100455.63;5040917;28;19917;-83
2021/05/23 05:24:34;;;;;;;;;;;;;;;17.13;63.78;100451.66;5052239;28;19920;-82
2021/05/23 05:27:37;;;;;;;;;;;;;;;17.27;62.95;100449.13;5049615;28;19917;-82
2021/05/23 05:30:22;;;;;;;;;;;;;;;17.39;62.43;100450.91;5047447;28;19921;-83
2021/05/23 05:33:06;;;;;;;;;;;;;;;17.30;63.19;100455.88;5045300;28;20293;-82
2021/05/23 05:35:51;;;;;;;;;;;;;;;17.28;63.43;100449.94;5057196;28;19916;-82
2021/05/23 05:38:55;;;;;;;;;;;;;;;17.35;63.29;100442.63;5041461;28;19920;-82
2021/05/23 05:41:39;;;;;;;;;;;;;;;17.36;62.82;100448.91;5045555;28;20376;-83
2021/05/23 05:44:24;;;;;;;;;;;;;;;17.54;62.21;100450.78;5059055;28;19913;-82
2021/05/23 05:47:09;;;;;;;;;;;;;;;17.73;61.50;100446.38;5048135;28;19917;-82
2021/05/23 05:49:54;;;;;;;;;;;;;;;17.81;61.09;100448.09;5043623;28;19913;-82
2021/05/23 05:52:38;;;;;;;;;;;;;;;17.70;62.18;100456.16;5042797;28;19913;-82
2021/05/23 05:55:23;;;;;;;;;;;;;;;17.54;62.34;100450.78;5045745;28;19917;-82
2021/05/23 05:58:08;;;;;;;;;;;;;;;17.56;62.93;100453.19;5051857;28;19912;-82
2021/05/23 06:00:53;;;;;;;;;;;;;;;17.56;62.64;100455.94;5042260;28;20388;-82
2021/05/23 06:03:38;;;;;;;;;;;;;;;17.60;62.56;100456.81;5056583;28;20389;-82
2021/05/23 06:06:24;;;;;;;;;;;;;;;17.69;62.41;100451.03;5064083;28;19917;-82
2021/05/23 06:09:09;;;;;;;;;;;;;;;17.67;62.87;100454.16;5048496;28;19913;-82
2021/05/23 06:14:57;;;;;;;;;;;;;;;17.69;62.31;100471.09;5062760;28;19913;-81
2021/05/23 06:17:42;;;;;;;;;;;;;;;17.71;62.56;100467.97;5051287;28;19913;-81
2021/05/23 06:20:28;;;;;;;;;;;;;;;17.77;62.45;100469.25;5042584;28;19913;-82
2021/05/23 06:23:14;;;;;;;;;;;;;;;17.79;62.15;100469.66;5030715;28;19913;-82
2021/05/23 06:29:03;;;;;;;;;;;;;;;17.90;62.18;100476.13;5036257;28;19913;-81
2021/05/23 06:31:48;;;;;;;;;;;;;;;17.93;61.97;100476.16;5042907;28;19917;-82
2021/05/23 06:34:33;;;;;;;;;;;;;;;17.94;62.35;100475.00;5039548;28;19917;-81
2021/05/23 06:37:18;;;;;;;;;;;;;;;17.98;62.41;100477.81;5050027;28;19925;-82
2021/05/23 06:40:21;;;;;;;;;;;;;;;18.04;62.12;100481.03;5049045;28;19917;-81
2021/05/23 06:43:06;;;;;;;;;;;;;;;18.03;62.03;100480.22;5044535;28;19913;-81
2021/05/23 06:45:51;;;;;;;;;;;;;;;18.14;61.08;100480.38;5045837;28;19921;-80
2021/05/23 06:48:36;;;;;;;;;;;;;;;18.12;62.24;100488.25;5011113;28;19913;-81
2021/05/23 06:51:21;;;;;;;;;;;;;;;18.26;60.71;100496.69;5031252;28;20345;-81
2021/05/23 06:54:05;;;;;;;;;;;;;;;18.28;61.03;100492.41;5045513;28;19913;-82
2021/05/23 06:56:50;;;;;;;;;;;;;;;18.48;61.27;100495.81;5040454;28;19912;-81
2021/05/23 06:59:34;;;;;;;;;;;;;;;18.57;60.31;100495.56;5040131;28;19920;-82
2021/05/23 07:05:23;;;;;;;;;;;;;;;18.84;59.00;100508.09;5037399;28;19912;-80
2021/05/23 07:08:07;;;;;;;;;;;;;;;19.03;58.79;100496.09;5040183;28;19917;-81
2021/05/23 07:10:52;;;;;;;;;;;;;;;18.96;59.18;100493.25;5043731;28;19913;-81
2021/05/23 07:13:37;;;;;;;;;;;;;;;19.07;58.25;100483.94;5042610;28;19913;-80
2021/05/23 07:19:25;;;;;;;;;;;;;;;19.21;58.40;100486.03;5042959;28;19913;-81
2021/05/23 07:22:28;;;;;;;;;;;;;;;19.29;57.85;100487.72;5035828;28;20369;-81
2021/05/23 07:25:13;;;;;;;;;;;;;;;19.40;57.59;100487.81;5046883;28;19901;-80
2021/05/23 07:27:57;;;;;;;;;;;;;;;19.55;57.42;100490.34;5067575;22;20121;-77
2021/05/23 07:30:43;;;;;;;;;;;;;;;19.61;56.87;100488.81;5034858;28;19917;-80
2021/05/23 07:33:27;;;;;;;;;;;;;;;19.75;55.46;100492.88;5056841;28;19913;-78
2021/05/23 07:36:12;;;;;;;;;;;;;;;19.72;56.61;100488.09;5054593;28;19913;-78
2021/05/23 07:38:57;;;;;;;;;;;;;;;19.79;55.44;100499.22;5033684;28;19913;-77
2021/05/23 07:41:42;;;;;;;;;;;;;;;19.84;55.34;100493.31;5037347;28;20389;-78
2021/05/23 07:44:27;;;;;;;;;;;;;;;19.98;54.10;100496.19;5034796;28;19912;-79
2021/05/23 07:47:11;;;;;;;;;;;;;;;19.92;54.44;100490.22;5033237;28;19917;-78
2021/05/23 07:49:56;;;;;;;;;;;;;;;20.07;55.22;100489.16;5037376;28;20496;-78
2021/05/23 07:52:40;;;;;;;;;;;;;;;20.21;53.60;100488.47;5036740;28;20377;-80
2021/05/23 07:55:25;;;;;;;;;;;;;;;20.15;54.05;100487.22;5037730;28;19913;-80
2021/05/23 07:58:09;;;;;;;;;;;;;;;20.14;54.22;100496.69;5037805;28;19912;-79
2021/05/23 08:00:54;;;;;;;;;;;;;;;20.13;54.69;100491.53;5037272;28;19912;-78
2021/05/23 08:03:39;;;;;;;;;;;;;;;20.03;55.02;100495.81;5038169;28;19916;-77
2021/05/23 08:06:24;;;;;;;;;;;;;;;20.10;55.26;100498.66;5041914;28;19916;-77
2021/05/23 08:09:09;;;;;;;;;;;;;;;20.05;55.00;100486.00;5040590;28;19913;-78
2021/05/23 08:11:53;;;;;;;;;;;;;;;20.02;55.45;100480.44;5039519;28;20313;-78
2021/05/23 08:14:38;;;;;;;;;;;;;;;20.17;54.00;100479.34;5042745;28;19917;-77
2021/05/23 08:17:44;;;;;;;;;;;;;;;20.30;53.27;100490.88;5036893;28;19913;-78
2021/05/23 08:20:29;;;;;;;;;;;;;;;20.27;53.45;100481.38;5036888;28;20297;-78
2021/05/23 08:23:13;;;;;;;;;;;;;;;20.32;53.21;100481.03;5041623;28;19916;-79
2021/05/23 08:25:59;;;;;;;;;;;;;;;20.47;52.53;100490.97;5039568;28;19913;-80
2021/05/23 08:28:45;;;;;;;;;;;;;;;20.52;51.72;100497.34;5017340;28;19913;-81
2021/05/23 08:31:29;;;;;;;;;;;;;;;20.45;52.15;100492.56;5054045;28;19917;-84
2021/05/23 08:34:14;;;;;;;;;;;;;;;20.58;51.36;100504.03;5044416;28;19897;-84
2021/05/23 08:37:01;;;;;;;;;;;;;;;20.54;51.33;100506.00;5039643;28;19925;-84
2021/05/23 08:39:46;;;;;;;;;;;;;;;20.57;50.90;100505.25;5045077;28;20285;-87
2021/05/23 08:42:31;;;;;;;;;;;;;;;20.58;50.92;100517.84;5049723;28;19913;-89
2021/05/23 08:45:16;;;;;;;;;;;;;;;20.53;50.81;100521.00;5051780;28;19913;-86
2021/05/23 08:48:01;;;;;;;;;;;;;;;20.61;50.70;100517.09;5042542;28;19917;-89
2021/05/23 08:51:04;;;;;;;;;;;;;;;20.61;50.67;100522.63;5042685;28;19913;-85
2021/05/23 08:53:49;;;;;;;;;;;;;;;20.58;50.25;100517.84;5048946;28;19917;-89
2021/05/23 08:56:33;;;;;;;;;;;;;;;20.58;50.69;100526.94;5051739;28;19916;-88
2021/05/23 08:59:19;;;;;;;;;;;;;;;20.62;50.54;100532.50;5046985;28;19917;-89
2021/05/23 09:02:07;;;;;;;;;;;;;;;20.80;50.36;100525.88;5050585;28;19904;-86
2021/05/23 09:08:41;;;;;;;;;;;;;;;;;;;;;
2021/05/23 09:11:51;;;;;;;;;;;;;;;20.97;49.91;100538.19;5041593;28;19913;-87
2021/05/23 09:14:55;;;;;;;;;;;;;;;20.98;49.78;100534.22;5039717;28;19917;-85
2021/05/23 09:17:59;;;;;;;;;;;;;;;20.88;50.12;100537.72;5036280;28;19913;-85
2021/05/23 09:20:44;;;;;;;;;;;;;;;20.95;49.58;100539.75;5039511;28;19916;-86
2021/05/23 09:23:38;;;;;;;;;;;;;;;20.86;49.49;100523.53;5054561;28;19917;-91
2021/05/23 09:26:28;;;;;;;;;;;;;;;20.90;49.91;100538.16;5040379;28;19933;-86
2021/05/23 09:29:34;;;;;;;;;;;;;;;20.87;50.13;100547.22;5043749;28;19917;-92
2021/05/23 09:32:22;;;;;;;;;;;;;;;20.87;49.39;100542.50;5052474;28;19913;-90
2021/05/23 09:35:07;;;;;;;;;;;;;;;20.89;48.66;100544.84;5052283;28;19913;-88
2021/05/23 09:37:57;;;;;;;;;;;;;;;20.92;49.17;100533.81;5049174;28;19917;-92
2021/05/23 09:40:43;;;;;;;;;;;;;;;20.86;48.95;100529.06;5052306;28;19901;-92
2021/05/23 09:43:28;;;;;;;;;;;;;;;20.89;49.46;100526.28;5045404;28;19913;-87
2021/05/23 09:46:12;;;;;;;;;;;;;;;20.91;49.53;100531.44;5040175;28;19916;-88
2021/05/23 09:48:59;;;;;;;;;;;;;;;20.92;50.29;100538.56;5055273;28;19905;-87
2021/05/23 09:51:56;;;;;;;;;;;;;;;20.86;50.35;100535.38;5056572;28;19928;-88
2021/05/23 09:54:59;;;;;;;;;;;;;;;;;;;;;
2021/05/23 10:01:36;;;;;;;;;;;;;;;20.90;49.73;100550.00;5016471;28;19917;-92
2021/05/23 10:04:38;;;;;;;;;;;;;;;;;;;;;
2021/05/23 10:07:25;;;;;;;;;;;;;;;20.87;48.58;100567.38;5026707;28;19917;-90
2021/05/23 10:13:50;;;;;;;;;;;;;;;20.98;48.22;100556.34;5045831;28;19913;-90
2021/05/23 10:16:55;;;;;;;;;;;;;;;21.10;47.70;100560.72;5045139;28;20346;-91
2021/05/23 10:19:40;;;;;;;;;;;;;;;21.05;48.08;100569.41;5050422;28;19921;-92
2021/05/23 10:22:25;;;;;;;;;;;;;;;21.03;47.93;100561.47;5047619;28;20365;-92
2021/05/23 10:25:12;;;;;;;;;;;;;;;21.13;47.74;100568.25;5045803;28;19912;-90
2021/05/23 10:28:17;;;;;;;;;;;;;;;21.02;48.29;100575.72;5044562;28;19917;-91
2021/05/23 10:31:01;;;;;;;;;;;;;;;21.14;47.60;100578.94;5045225;28;19920;-92
2021/05/23 10:33:51;;;;;;;;;;;;;;;21.09;47.72;100571.00;5045261;28;19932;-88
2021/05/23 10:36:42;;;;;;;;;;;;;;;21.11;48.16;100574.16;5046237;28;19913;-90
2021/05/23 10:39:35;;;;;;;;;;;;;;;21.10;48.42;100575.34;5036373;28;19921;-91
2021/05/23 10:42:20;;;;;;;;;;;;;;;21.17;47.53;100583.72;5046311;28;19916;-91
2021/05/23 10:45:05;;;;;;;;;;;;;;;21.03;48.16;100583.59;5037999;28;19913;-90
2021/05/23 10:47:50;;;;;;;;;;;;;;;21.04;47.89;100587.97;5042704;28;19921;-92
2021/05/23 10:50:35;;;;;;;;;;;;;;;21.10;48.04;100577.31;5034141;28;19913;-90
2021/05/23 10:53:33;;;;;;;;;;;;;;;21.11;47.61;100574.16;5032163;28;19913;-91
2021/05/23 10:56:26;;;;;;;;;;;;;;;21.10;47.69;100580.09;5039360;28;19913;-91
2021/05/23 10:59:12;;;;;;;;;;;;;;;21.08;47.66;100585.22;5037948;28;19921;-88
2021/05/23 11:01:58;;;;;;;;;;;;;;;21.13;47.26;100590.38;5036170;28;19913;-90
2021/05/23 11:04:43;;;;;;;;;;;;;;;21.04;47.22;100587.16;5032673;28;19913;-88
2021/05/23 11:07:29;;;;;;;;;;;;;;;21.03;48.20;100588.38;5038132;28;19917;-91
2021/05/23 11:10:14;;;;;;;;;;;;;;;21.11;47.50;100585.22;5036852;28;19913;-89
2021/05/23 11:13:00;;;;;;;;;;;;;;;21.05;47.32;100578.50;5035782;28;19918;-90
2021/05/23 11:15:46;;;;;;;;;;;;;;;20.99;46.80;100588.34;5045109;28;19913;-91
2021/05/23 11:18:31;;;;;;;;;;;;;;;21.09;46.82;100579.28;5042499;28;19913;-86
2021/05/23 11:21:16;;;;;;;;;;;;;;;21.09;45.91;100579.28;5037197;28;19913;-88
2021/05/23 11:24:01;;;;;;;;;;;;;;;21.12;46.13;100592.34;5038851;28;19913;-87
2021/05/23 11:26:46;;;;;;;;;;;;;;;21.01;46.59;100583.22;5044343;28;19917;-89
2021/05/23 11:29:31;;;;;;;;;;;;;;;20.93;46.52;100579.63;5043683;28;19913;-92
2021/05/23 11:32:16;;;;;;;;;;;;;;;21.13;46.50;100577.31;5050596;28;19913;-90
2021/05/23 11:35:00;;;;;;;;;;;;;;;20.93;47.14;100579.63;5047560;28;19913;-87
2021/05/23 11:37:46;;;;;;;;;;;;;;;20.92;47.34;100566.22;5036487;28;20402;-89
2021/05/23 11:40:36;;;;;;;;;;;;;;;20.85;47.03;100572.50;5041383;28;19913;-89
2021/05/23 11:43:22;;;;;;;;;;;;;;;20.95;46.46;100562.66;5042880;28;19913;-87
2021/05/23 11:46:28;;;;;;;;;;;;;;;20.95;46.31;100559.88;5039435;28;19913;-90
2021/05/23 11:49:20;;;;;;;;;;;;;;;20.82;46.70;100561.44;5048667;28;20189;-91
2021/05/23 11:52:06;;;;;;;;;;;;;;;20.84;46.07;100548.78;5038167;28;19921;-85
2021/05/23 11:54:57;;;;;;;;;;;;;;;20.98;45.27;100552.81;5041346;28;19917;-87
2021/05/23 11:57:42;;;;;;;;;;;;;;;21.02;45.76;100543.34;5038443;28;19917;-85
2021/05/23 12:00:26;;;;;;;;;;;;;;;21.08;45.69;100546.53;5041225;28;19913;-88
2021/05/23 12:03:11;;;;;;;;;;;;;;;21.03;46.31;100550.44;5038371;28;19913;-87
2021/05/23 12:05:56;;;;;;;;;;;;;;;21.00;46.54;100550.41;5041600;28;19913;-85
2021/05/23 12:08:41;;;;;;;;;;;;;;;20.96;45.55;100555.94;5042175;28;19917;-85
2021/05/23 12:14:30;;;;;;;;;;;;;;;21.10;45.35;100549.66;5040382;28;19917;-86
2021/05/23 12:17:19;;;;;;;;;;;;;;;21.17;45.25;100553.28;5044185;28;19912;-87
2021/05/23 12:20:04;;;;;;;;;;;;;;;21.16;44.91;100557.22;5040103;28;20309;-86
2021/05/23 12:25:59;;;;;;;;;;;;;;;21.16;45.74;100548.13;5044058;28;19921;-88
2021/05/23 12:28:48;;;;;;;;;;;;;;;21.23;45.02;100556.47;5053634;28;19925;-88
2021/05/23 12:31:35;;;;;;;;;;;;;;;21.25;45.08;100549.34;5050780;28;19913;-89
2021/05/23 12:34:19;;;;;;;;;;;;;;;21.21;44.68;100551.31;5039712;28;19917;-90
2021/05/23 12:37:05;;;;;;;;;;;;;;;21.30;44.17;100548.16;5034974;28;19939;-88
2021/05/23 12:39:49;;;;;;;;;;;;;;;21.29;43.89;100541.06;5044774;28;19913;-88
2021/05/23 12:42:34;;;;;;;;;;;;;;;21.34;43.66;100538.69;5050442;28;19913;-88
2021/05/23 12:45:19;;;;;;;;;;;;;;;21.42;43.32;100541.47;5053062;28;19913;-86
2021/05/23 12:48:08;;;;;;;;;;;;;;;21.39;43.56;100533.94;5047968;28;19920;-86
2021/05/23 12:51:12;;;;;;;;;;;;;;;21.33;44.19;100531.56;5047268;28;19913;-89
2021/05/23 12:54:00;;;;;;;;;;;;;;;21.31;44.77;100544.22;5050035;28;19921;-89
2021/05/23 12:57:04;;;;;;;;;;;;;;;21.23;45.12;100537.09;5046629;28;20312;-88
2021/05/23 12:59:49;;;;;;;;;;;;;;;21.29;44.52;100539.06;5051020;28;19913;-86
2021/05/23 13:02:53;;;;;;;;;;;;;;;21.34;44.81;100544.22;5051854;28;19913;-89
2021/05/23 13:05:57;;;;;;;;;;;;;;;21.50;44.49;100537.53;5047049;28;19913;-87
2021/05/23 13:11:49;;;;;;;;;;;;;;;21.46;44.59;100533.97;5053593;28;19913;-88
2021/05/23 13:14:35;;;;;;;;;;;;;;;21.51;43.60;100536.34;5052363;28;20361;-89
2021/05/23 13:17:26;;;;;;;;;;;;;;;21.41;43.34;100548.19;5044711;28;19913;-86
2021/05/23 13:23:15;;;;;;;;;;;;;;;21.36;43.38;100545.81;5046403;28;19913;-88
2021/05/23 13:26:00;;;;;;;;;;;;;;;21.40;42.79;100539.09;5053564;28;19917;-89
2021/05/23 13:31:33;;;;;;;;;;;;;;;21.50;42.68;100545.84;5032206;28;19928;-87
2021/05/23 13:34:18;;;;;;;;;;;;;;;21.48;42.81;100548.22;5036837;28;19918;-87
2021/05/23 13:37:02;;;;;;;;;;;;;;;21.38;43.58;100549.00;5034050;28;19913;-87
2021/05/23 13:39:49;;;;;;;;;;;;;;;21.27;42.81;100544.22;5012578;28;19918;-87
2021/05/23 13:42:33;;;;;;;;;;;;;;;21.34;42.10;100552.53;5016385;28;19913;-87
2021/05/23 13:45:19;;;;;;;;;;;;;;;21.32;42.68;100546.63;5013285;28;19917;-87
2021/05/23 13:48:04;;;;;;;;;;;;;;;21.28;42.42;100547.78;5024840;28;20325;-87
2021/05/23 13:50:48;;;;;;;;;;;;;;;21.31;41.68;100545.03;5022329;28;19917;-88
2021/05/23 13:53:34;;;;;;;;;;;;;;;21.32;41.98;100551.34;5015232;28;19914;-88
2021/05/23 13:56:20;;;;;;;;;;;;;;;21.18;41.76;100543.78;5012830;28;19913;-87
2021/05/23 14:02:08;;;;;;;;;;;;;;;21.24;41.15;100539.47;5013224;28;19918;-87
2021/05/23 14:04:53;;;;;;;;;;;;;;;21.15;41.25;100539.06;5014409;28;20142;-88
2021/05/23 14:07:57;;;;;;;;;;;;;;;21.18;41.28;100535.50;5015240;28;19918;-88
2021/05/23 14:10:42;;;;;;;;;;;;;;;21.10;41.38;100539.41;5012393;28;19913;-87
2021/05/23 14:13:45;;;;;;;;;;;;;;;21.16;39.74;100535.09;5009944;28;19913;-87
2021/05/23 14:16:48;;;;;;;;;;;;;;;21.24;39.98;100545.00;5011230;28;19917;-87
2021/05/23 14:19:33;;;;;;;;;;;;;;;21.21;40.04;100550.53;5011016;28;20405;-87
2021/05/23 14:22:18;;;;;;;;;;;;;;;21.16;40.19;100548.94;5013813;28;19917;-87
2021/05/23 14:25:02;;;;;;;;;;;;;;;21.11;40.07;100549.28;5012515;28;20401;-87
2021/05/23 14:27:47;;;;;;;;;;;;;;;21.12;40.65;100561.13;5010736;28;19926;-87
2021/05/23 14:30:32;;;;;;;;;;;;;;;21.12;42.02;100570.22;5013784;28;19913;-87
2021/05/23 14:33:38;;;;;;;;;;;;;;;21.03;42.29;100572.53;5013301;28;19913;-88
2021/05/23 14:36:23;;;;;;;;;;;;;;;21.08;41.71;100571.41;5011013;28;19914;-87
2021/05/23 14:39:09;;;;;;;;;;;;;;;21.08;42.43;100563.88;4997568;28;19918;-87
2021/05/23 14:41:53;;;;;;;;;;;;;;;21.03;42.89;100572.53;5011484;28;19914;-87
2021/05/23 14:44:38;;;;;;;;;;;;;;;20.95;43.83;100578.44;5016750;28;19917;-87
2021/05/23 14:47:22;;;;;;;;;;;;;;;20.92;43.94;100577.25;5015459;28;19917;-87
2021/05/23 14:50:09;;;;;;;;;;;;;;;20.94;43.85;100583.19;5014526;28;19913;-87
2021/05/23 14:52:54;;;;;;;;;;;;;;;20.89;43.57;100589.88;5017009;28;19913;-87
2021/05/23 14:55:39;;;;;;;;;;;;;;;20.90;43.29;100591.47;5029285;28;19925;-87
2021/05/23 14:58:23;;;;;;;;;;;;;;;21.00;43.11;100600.97;5027743;28;19913;-88
2021/05/23 15:01:08;;;;;;;;;;;;;;;20.99;42.85;100593.88;5023923;28;19917;-85
2021/05/23 15:03:53;;;;;;;;;;;;;;;21.05;42.69;100602.59;5025931;28;20348;-87
2021/05/23 15:06:38;;;;;;;;;;;;;;;21.03;42.73;100607.72;5033472;28;19913;-86
2021/05/23 15:09:23;;;;;;;;;;;;;;;21.07;42.36;100611.28;5028612;28;19917;-86
2021/05/23 15:12:08;;;;;;;;;;;;;;;21.02;43.04;100615.22;5025331;28;19914;-87
2021/05/23 15:14:53;;;;;;;;;;;;;;;21.00;43.00;100612.03;5030765;28;19913;-86
2021/05/23 15:17:37;;;;;;;;;;;;;;;20.92;43.17;100618.72;5026579;28;19913;-85
2021/05/23 15:20:23;;;;;;;;;;;;;;;20.86;43.40;100623.03;5032305;28;19913;-86
2021/05/23 15:23:12;;;;;;;;;;;;;;;20.81;43.40;100628.94;5029904;28;19917;-86
2021/05/23 15:26:04;;;;;;;;;;;;;;;20.75;43.40;100631.28;5020040;28;19913;-86
2021/05/23 15:31:52;;;;;;;;;;;;;;;20.64;43.39;100632.38;5025053;28;20374;-86